Home > Products > Valid Products > TAF

000
FTUS44 KSHV 272300
TAFELD
TAF
KELD 272320Z 2800/2824 22008KT P6SM SKC
     FM280800 25003KT P6SM VCSH SCT060 BKN150 OVC250
     FM281500 36004KT P6SM VCTS SCT060CB BKN120=



000
FTUS44 KSHV 272300
TAFLFK
TAF
KLFK 272320Z 2800/2824 VRB04KT P6SM SCT250
     FM281500 26005KT P6SM SCT060
     FM281800 26006KT P6SM VCTS BKN060CB=



000
FTUS44 KSHV 272300
TAFTYR
TAF
KTYR 272320Z 2800/2824 VRB06KT P6SM SKC
     FM280100 19007KT P6SM SCT250
     FM281700 36005KT P6SM VCTS SCT060CB=



000
FTUS44 KSHV 272300
TAFSHV
TAF
KSHV 272320Z 2800/2824 21007KT P6SM FEW045 SCT300
     FM280100 21005KT P6SM SCT250
     FM281600 36007KT P6SM VCTS SCT060CB=



000
FTUS44 KSHV 272300
TAFMLU
TAF
KMLU 272320Z 2800/2824 21009KT P6SM FEW050
     FM280100 21003KT P6SM SCT250
     FM281600 36007KT P6SM VCTS SCT060CB=



000
FTUS44 KSHV 272300
TAFGGG
TAF
KGGG 272320Z 2800/2824 20006KT P6SM SCT250
     FM281600 34004KT P6SM SCT060
     FM281800 36007KT P6SM VCTS SCT060CB=



000
FTUS44 KSHV 272300
TAFTXK
TAF
KTXK 272320Z 2800/2824 23006KT P6SM SKC
     FM281000 23005KT P6SM VCTS SCT060CB BKN150 OVC250
     FM281700 33010KT P6SM VCTS SCT060CB BKN120=



000
FTUS44 KSHV 271700
TAFTYR
TAF
KTYR 271720Z 2718/2818 21010KT P6SM SCT045 SCT250
     FM280100 19007KT P6SM SCT250
     FM281600 36004KT P6SM SCT060=



000
FTUS44 KSHV 271700
TAFSHV
TAF
KSHV 271720Z 2718/2818 24007KT P6SM SCT045 SCT250
     FM280100 21005KT P6SM SCT250
     FM281600 36004KT P6SM SCT060=



000
FTUS44 KSHV 271700
TAFELD
TAF
KELD 271720Z 2718/2818 24007KT P6SM SCT045 SCT250
     FM280100 22005KT P6SM SCT060 SCT250
     FM280800 25003KT P6SM VCTS SCT060CB BKN150 OVC250
     FM281500 36004KT P6SM VCTS SCT060CB BKN120=



000
FTUS44 KSHV 271700
TAFTXK
TAF
KTXK 271720Z 2718/2818 23007KT P6SM SCT045 SCT250
     FM280100 21005KT P6SM SCT060 SCT250
     FM280800 23005KT P6SM VCTS SCT060CB BKN150 OVC250
     FM281500 36004KT P6SM VCTS SCT060CB BKN120=



000
FTUS44 KSHV 271700
TAFMLU
TAF
KMLU 271720Z 2718/2818 23007KT P6SM SCT045 SCT250
     FM280100 21003KT P6SM SCT250
     FM281600 36004KT P6SM SCT060=



000
FTUS44 KSHV 271700
TAFGGG
TAF
KGGG 271720Z 2718/2818 23008KT P6SM SCT045 SCT250
     FM280100 19006KT P6SM SCT250
     FM281600 36004KT P6SM SCT060=



000
FTUS44 KSHV 271700
TAFLFK
TAF
KLFK 271720Z 2718/2818 21007KT P6SM SCT045 SCT250
     FM280100 18005KT P6SM SCT250=



000
FTUS44 KSHV 271400 AAA
TAFLFK
TAF AMD
KLFK 271406Z 2714/2812 21004KT P6SM BKN011
     FM271500 22005KT P6SM SCT030 SCT250
     FM271600 21007KT P6SM SCT045 SCT250
     FM280100 18005KT P6SM SCT250=



000
FTUS44 KSHV 271100
TAFELD
TAF
KELD 271124Z 2712/2812 21004KT P6SM SCT250
     FM271500 24007KT P6SM SCT250
     FM271700 24007KT P6SM SCT045 SCT250
     FM280100 22005KT P6SM SCT060 SCT250
     FM280800 25003KT P6SM VCTS SCT060CB BKN150 OVC250=



000
FTUS44 KSHV 271100
TAFTXK
TAF
KTXK 271124Z 2712/2812 21007KT P6SM SCT250
     FM271500 24008KT P6SM SCT250
     FM271700 23007KT P6SM SCT045 SCT250
     FM280100 21005KT P6SM SCT060 SCT250
     FM280800 23005KT P6SM VCTS SCT060CB BKN150 OVC250=



000
FTUS44 KSHV 271100
TAFTYR
TAF
KTYR 271124Z 2712/2812 21007KT P6SM SCT010 SCT250
      TEMPO 2712/2714 BKN010
     FM271500 21010KT P6SM FEW030 SCT250
     FM271700 21010KT P6SM SCT045 SCT250
     FM280100 19007KT P6SM SCT250=



000
FTUS44 KSHV 271100
TAFGGG
TAF
KGGG 271124Z 2712/2812 21007KT P6SM SCT010 SCT250
      TEMPO 2712/2714 BKN010
     FM271500 23009KT P6SM FEW030 SCT250
     FM271700 23008KT P6SM SCT045 SCT250
     FM280100 19006KT P6SM SCT250=



000
FTUS44 KSHV 271100
TAFLFK
TAF
KLFK 271124Z 2712/2812 21004KT P6SM SCT009 SCT250
      TEMPO 2712/2714 BKN009
     FM271500 22005KT P6SM SCT030 SCT250
     FM271600 21007KT P6SM SCT045 SCT250
     FM280100 18005KT P6SM SCT250=



000
FTUS44 KSHV 271100
TAFSHV
TAF
KSHV 271124Z 2712/2812 21005KT P6SM FEW012 SCT250
     FM271500 24007KT P6SM SCT250
     FM271700 24007KT P6SM SCT045 SCT250
     FM280100 21005KT P6SM SCT250=



000
FTUS44 KSHV 271100
TAFMLU
TAF
KMLU 271124Z 2712/2812 21004KT P6SM SCT250
      TEMPO 2712/2713 3SM BR
     FM271500 24007KT P6SM SCT250
     FM271700 23007KT P6SM SCT045 SCT250
     FM280100 21003KT P6SM SCT250=



000
FTUS44 KSHV 270500
TAFELD
TAF
KELD 270529Z 2706/2806 00000KT P6SM SKC
     FM271100 21003KT 6SM BR SKC
     FM271200 21003KT 5SM BR SKC
     FM271300 23006KT P6SM SCT300
     FM280300 00000KT P6SM SCT250=



000
FTUS44 KSHV 270500
TAFLFK
TAF
KLFK 270529Z 2706/2806 18005KT P6SM SKC
     FM271100 19003KT 5SM BR SCT015 BKN250
      TEMPO 2711/2714 3SM BR BKN015 BKN250
     FM271400 22005KT P6SM SCT035 SCT300
     FM280000 18005KT P6SM SKC=



000
FTUS44 KSHV 270500
TAFGGG
TAF
KGGG 270529Z 2706/2806 17006KT P6SM SKC
     FM271400 22009KT P6SM SKC
     FM280300 17003KT P6SM SKC=



000
FTUS44 KSHV 270500
TAFSHV
TAF
KSHV 270529Z 2706/2806 18005KT P6SM SKC
     FM271200 21006KT 5SM BR FEW250
     FM271300 22006KT P6SM SCT300=



000
FTUS44 KSHV 270500
TAFTYR
TAF
KTYR 270529Z 2706/2806 16005KT P6SM SKC
     FM271400 22009KT P6SM SKC
     FM280200 17004KT P6SM SKC=



000
FTUS44 KSHV 270500
TAFMLU
TAF
KMLU 270529Z 2706/2806 VRB03KT P6SM SKC
     FM270900 21006KT 5SM BR SCT300
      TEMPO 2709/2713 1SM BR BKN002
     FM271400 24008KT 6SM HZ SCT040 SCT300
     FM280000 21004KT P6SM FEW250=



000
FTUS44 KSHV 270500
TAFTXK
TAF
KTXK 270529Z 2706/2806 18006KT P6SM SKC
     FM270800 20008KT P6SM SKC
     FM271300 23010KT P6SM SCT300
     FM280000 20005KT P6SM SCT250=



000
FTUS44 KSHV 262300
TAFMLU
TAF
KMLU 262339Z 2700/2724 18006KT P6SM FEW050
     FM270100 18004KT P6SM SKC
     FM270900 21006KT 5SM BR SCT300
     FM271400 24008KT 6SM HZ SCT040 SCT300=



000
FTUS44 KSHV 262300
TAFSHV
TAF
KSHV 262339Z 2700/2724 22007KT P6SM FEW045
     FM270300 18005KT P6SM SKC
     FM270600 20007KT P6SM SKC
     FM271200 22006KT 5SM BR SCT040
     FM271300 22006KT P6SM SCT300=



000
FTUS44 KSHV 262300
TAFELD
TAF
KELD 262339Z 2700/2724 18006KT P6SM SKC
     FM270100 18004KT P6SM SKC
     FM271100 21003KT 6SM HZ SKC
     FM271200 21003KT 4SM BR SKC
     FM271300 23006KT P6SM SCT300=



000
FTUS44 KSHV 262300
TAFTXK
TAF
KTXK 262339Z 2700/2724 18007KT P6SM FEW060
     FM270100 19006KT P6SM SKC
     FM270800 20008KT P6SM SKC
     FM271300 22011KT P6SM SCT300=



000
FTUS44 KSHV 262300
TAFGGG
TAF
KGGG 262339Z 2700/2724 19011KT P6SM FEW050
     FM270100 18007KT P6SM SKC
     FM271400 22009KT P6SM SKC=



000
FTUS44 KSHV 262300
TAFLFK
TAF
KLFK 262339Z 2700/2724 17005KT P6SM SCT060 BKN080
     FM270100 18005KT P6SM BKN045
     FM270500 18006KT P6SM SCT045 SCT300
     FM271100 19002KT 4SM BR SCT015 BKN250
      TEMPO 2711/2714 3SM BR BKN015 BKN250
     FM271400 22005KT P6SM SCT035 SCT300=



000
FTUS44 KSHV 262300
TAFTYR
TAF
KTYR 262339Z 2700/2724 19012KT P6SM SKC
     FM270100 18007KT P6SM SKC
     FM271400 22009KT P6SM SKC=



000
FTUS44 KSHV 261700 RRA
TAFLFK
TAF
KLFK 261749Z 2618/2718 21007KT P6SM SCT040 SCT300
     FM270100 18005KT P6SM BKN045
     FM270500 18006KT P6SM SCT045 SCT300
     FM271100 19002KT 4SM BR SCT015 BKN250
      TEMPO 2711/2714 3SM BR BKN015 BKN250
     FM271400 22005KT P6SM SCT035 SCT300=



000
FTUS44 KSHV 261700 RRA
TAFMLU
TAF
KMLU 261749Z 2618/2718 21006KT 6SM HZ FEW035 FEW300
     FM262100 19008KT P6SM SCT045 SCT300
     FM270100 18004KT P6SM SKC
     FM270900 21006KT 5SM BR SCT300
     FM271400 24008KT 5SM HZ SCT040 SCT300=



000
FTUS44 KSHV 261700 RRA
TAFELD
TAF
KELD 261749Z 2618/2718 21008KT P6SM FEW035
     FM262100 19008KT P6SM SCT040 SCT250
     FM270100 18004KT P6SM SKC
     FM271100 21003KT 6SM HZ SKC
     FM271200 21003KT 4SM BR SKC
     FM271300 21006KT P6SM SCT300=



000
FTUS44 KSHV 261700 RRA
TAFTXK
TAF
KTXK 261749Z 2618/2718 23010G17KT P6SM SCT300
     FM262100 21009KT P6SM SCT040 SCT250
     FM270100 19006KT P6SM SKC
     FM270800 20008KT P6SM SKC
     FM271300 22011KT P6SM SCT300=



000
FTUS44 KSHV 261700 RRA
TAFGGG
TAF
KGGG 261749Z 2618/2718 23009KT P6SM SCT300
     FM262100 21008KT P6SM SCT040 SCT300
     FM270100 18007KT P6SM SKC
     FM271400 22009KT P6SM SKC=



000
FTUS44 KSHV 261700 RRA
TAFSHV
TAF
KSHV 261749Z 2618/2718 20008KT P6SM FEW040 FEW300
     FM262100 19008KT P6SM SCT045 SCT300
     FM270100 18005KT P6SM SKC
     FM270600 20007KT P6SM SKC
     FM271200 22006KT 5SM BR SCT040
     FM271300 22006KT P6SM SCT300=



000
FTUS44 KSHV 261700 RRA
TAFTYR
TAF
KTYR 261749Z 2618/2718 23009KT P6SM SCT300
     FM262100 21008KT P6SM SCT040 SCT300
     FM270100 18007KT P6SM SKC
     FM271400 22009KT P6SM SKC=



000
FTUS44 KSHV 261100 RRA
TAFSHV
TAF
KSHV 261141Z 2612/2712 21005KT P6SM FEW250
     FM261500 22007KT P6SM SCT030
     FM262100 19008KT P6SM SCT050 SCT250
     FM270100 18005KT P6SM SKC=



000
FTUS44 KSHV 261100 RRA
TAFTYR
TAF
KTYR 261141Z 2612/2712 20006KT P6SM FEW250
     FM261600 21009KT P6SM FEW040 SCT250
     FM270100 18007KT P6SM SKC=



000
FTUS44 KSHV 261100 RRA
TAFTXK
TAF
KTXK 261141Z 2612/2712 20004KT 6SM BR SKC
     FM261500 23008KT P6SM SCT025
     FM262100 21009KT P6SM SCT040 SCT250
     FM270100 19006KT P6SM SKC=



000
FTUS44 KSHV 261100 RRA
TAFLFK
TAF
KLFK 261141Z 2612/2712 21004KT P6SM FEW250
     FM261600 21006KT P6SM FEW040 SCT250
     FM270100 18005KT P6SM SKC=



000
FTUS44 KSHV 261100 RRA
TAFGGG
TAF
KGGG 261141Z 2612/2712 21006KT P6SM FEW250
     FM261600 22009KT P6SM FEW040 SCT250
     FM270100 17006KT P6SM SKC=



000
FTUS44 KSHV 261100 RRA
TAFELD
TAF
KELD 261141Z 2612/2712 00000KT P6SM SKC
     FM261500 22007KT P6SM SCT030
     FM262100 19008KT P6SM FEW040 SCT250
     FM270100 18004KT P6SM SKC=



000
FTUS44 KSHV 261100 RRA
TAFMLU
TAF
KMLU 261141Z 2612/2712 21003KT 3SM BR FEW250
     FM261500 23007KT P6SM SCT030
     FM262100 21008KT P6SM SCT050 SCT250
     FM270100 18004KT P6SM SKC=



000
FTUS44 KSHV 260900 AAA
TAFGGG
TAF AMD
KGGG 260927Z 2609/2706 16003KT P6SM SKC
     FM261100 19007KT 5SM BR SKC
     FM261500 22009KT P6SM FEW250
     FM270000 17006KT P6SM SKC=



000
FTUS44 KSHV 260900 AAD
TAFMLU
TAF AMD
KMLU 260901Z 2609/2706 VRB03KT 1SM BR SCT250
      TEMPO 2609/2611 1/2SM FG
     FM261100 21002KT 2SM BR SKC
     FM261300 22007KT P6SM SKC
     FM270000 18004KT P6SM SKC=



000
FTUS44 KSHV 260800 AAC
TAFMLU
TAF AMD
KMLU 260834Z 2609/2706 VRB03KT 1SM BR VV002
      TEMPO 2609/2611 1/4SM FG
     FM261100 21002KT 2SM BR SKC
     FM261300 22007KT P6SM SKC
     FM270000 18004KT P6SM SKC=



000
FTUS44 KSHV 260800 AAB
TAFMLU
TAF AMD
KMLU 260831Z 2609/2706 VRB03KT 2SM BR SCT250
      TEMPO 2609/2611 1/4SM FG VV002
     FM261100 21002KT 3SM BR SKC
     FM261300 22007KT P6SM SKC
     FM270000 18004KT P6SM SKC=



000
FTUS44 KSHV 260800 AAA
TAFTXK
TAF AMD
KTXK 260817Z 2608/2706 15003KT 5SM BR SKC
     FM261400 23008KT P6SM SKC
     FM270000 19005KT P6SM SKC=



000
FTUS44 KSHV 260700 AAA
TAFMLU
TAF AMD
KMLU 260722Z 2607/2706 VRB03KT 4SM BR SKC
      TEMPO 2607/2611 2SM BR
     FM261100 21002KT 3SM BR SKC
     FM261300 22007KT P6SM SKC
     FM270000 18004KT P6SM SKC=



000
FTUS44 KSHV 260500
TAFMLU
TAF
KMLU 260520Z 2606/2706 VRB03KT P6SM SKC
     FM261100 21002KT 4SM BR SKC
     FM261300 22007KT P6SM SKC
     FM270000 18004KT P6SM SKC=



000
FTUS44 KSHV 260500
TAFELD
TAF
KELD 260520Z 2606/2706 00000KT P6SM SKC
     FM261100 20003KT 4SM BR SKC
     FM261500 22008KT P6SM SKC
     FM270000 17006KT P6SM SKC=



000
FTUS44 KSHV 260500
TAFTYR
TAF
KTYR 260520Z 2606/2706 17004KT P6SM SKC
     FM261200 20008KT P6SM FEW250
     FM270000 19005KT P6SM SKC=



000
FTUS44 KSHV 260500
TAFLFK
TAF
KLFK 260520Z 2606/2706 00000KT P6SM SKC
     FM261100 VRB03KT 4SM BR SKC
     FM261400 21006KT P6SM FEW250
     FM270000 18005KT P6SM SKC=



000
FTUS44 KSHV 260500
TAFGGG
TAF
KGGG 260520Z 2606/2706 16003KT P6SM SKC
     FM260900 19007KT 4SM BR SKC
     FM261500 22009KT P6SM FEW250
     FM270000 17006KT P6SM SKC=



000
FTUS44 KSHV 260500
TAFTXK
TAF
KTXK 260520Z 2606/2706 15003KT 6SM HZ SKC
     FM261500 23008KT P6SM SKC
     FM270000 19005KT P6SM SKC=



000
FTUS44 KSHV 260500
TAFSHV
TAF
KSHV 260520Z 2606/2706 VRB03KT P6SM SCT300
     FM261100 20004KT 6SM BR SKC
     FM261300 21007KT P6SM FEW250
     FM270000 18005KT P6SM SKC=



000
FTUS44 KSHV 252300
TAFLFK
TAF
KLFK 252339Z 2600/2624 09004KT P6SM FEW045
     FM260300 16004KT P6SM SKC
     FM261100 00000KT 4SM BR SKC
     FM261400 21006KT P6SM FEW250=



000
FTUS44 KSHV 252300
TAFTXK
TAF
KTXK 252339Z 2600/2624 15006KT P6SM FEW040
     FM260300 19004KT P6SM SKC
     FM260600 20004KT 4SM BR SKC
     FM261500 23008KT P6SM SKC=



000
FTUS44 KSHV 252300
TAFELD
TAF
KELD 252339Z 2600/2624 21004KT P6SM SKC
     FM260300 VRB03KT P6SM SKC
     FM261100 20002KT 4SM BR SKC
     FM261500 22008KT P6SM SKC=



000
FTUS44 KSHV 252300
TAFTYR
TAF
KTYR 252339Z 2600/2624 17008KT P6SM SKC
     FM260300 17005KT P6SM SKC
     FM261200 20008KT P6SM FEW250=



000
FTUS44 KSHV 252300
TAFSHV
TAF
KSHV 252339Z 2600/2624 27003KT P6SM FEW060 SCT280
     FM260300 17004KT P6SM SKC
     FM261100 20004KT 6SM BR SKC
     FM261400 21007KT P6SM FEW250=



000
FTUS44 KSHV 252300
TAFGGG
TAF
KGGG 252339Z 2600/2624 19006KT P6SM FEW045
     FM260300 17005KT P6SM SKC
     FM260900 19007KT 4SM BR SKC
     FM261500 22009KT P6SM FEW250=



000
FTUS44 KSHV 252300
TAFMLU
TAF
KMLU 252339Z 2600/2624 09003KT P6SM SCT050 BKN070
     FM260300 VRB03KT P6SM SKC
     FM260600 19003KT P6SM SKC
     FM261100 21002KT 4SM BR SKC
     FM261400 22007KT P6SM SKC=



000
FTUS44 KSHV 251700
TAFELD
TAF
KELD 251730Z 2518/2618 VRB04KT P6SM SCT045 SCT250
     FM260300 VRB03KT P6SM SKC
     FM261100 20002KT 4SM BR SKC
     FM261500 22008KT P6SM SKC=



000
FTUS44 KSHV 251700
TAFTYR
TAF
KTYR 251730Z 2518/2618 21006KT P6SM SCT030 SCT250
     FM260300 17005KT P6SM SKC
     FM261200 20008KT P6SM FEW250=



000
FTUS44 KSHV 251700
TAFMLU
TAF
KMLU 251730Z 2518/2618 VRB04KT P6SM SCT040 SCT250
     FM260300 VRB03KT P6SM SKC
     FM260600 19003KT P6SM SKC
     FM261100 21002KT 4SM BR SKC
     FM261400 22007KT P6SM SKC=



000
FTUS44 KSHV 251700
TAFGGG
TAF
KGGG 251730Z 2518/2618 VRB05KT P6SM FEW030 SCT250
     FM260300 17005KT P6SM SKC
     FM260900 19007KT 4SM BR SKC
     FM261500 22009KT P6SM FEW250=



000
FTUS44 KSHV 251700
TAFLFK
TAF
KLFK 251730Z 2518/2618 22005KT P6SM FEW040 SCT250
     FM260300 16004KT P6SM SKC
     FM261100 00000KT 4SM BR SKC
     FM261400 21006KT P6SM FEW250=



000
FTUS44 KSHV 251700
TAFSHV
TAF
KSHV 251730Z 2518/2618 VRB05KT P6SM SCT030 SCT250
     FM260300 17004KT P6SM SKC
     FM261100 20004KT 4SM BR SKC
     FM261400 20007KT P6SM FEW250=



000
FTUS44 KSHV 251700
TAFTXK
TAF
KTXK 251730Z 2518/2618 18005KT P6SM SCT035 SCT250
     FM260300 19004KT P6SM SKC
     FM260600 20004KT 4SM BR SKC
     FM261500 22008KT P6SM SKC=



000
FTUS44 KSHV 251300 AAA
TAFTXK
TAF AMD
KTXK 251300Z 2513/2612 00000KT 5SM BR SCT020 SCT250
      TEMPO 2513/2514 2SM BR BKN020
     FM251400 16005KT P6SM SCT035 SCT250
     FM260100 17004KT P6SM SKC=



000
FTUS44 KSHV 251100 RRA
TAFMLU
TAF
KMLU 251143Z 2512/2612 04003KT P6SM SCT030 BKN250
     FM251500 VRB04KT P6SM SCT040 SCT250
     FM260100 VRB03KT P6SM SKC
     FM261000 VRB02KT 5SM BR SKC=



000
FTUS44 KSHV 251100 RRA
TAFLFK
TAF
KLFK 251143Z 2512/2612 VRB03KT P6SM FEW250
     FM251500 22005KT P6SM FEW040 SCT250
     FM260100 17004KT P6SM SKC=



000
FTUS44 KSHV 251100 RRA
TAFTYR
TAF
KTYR 251143Z 2512/2612 14004KT P6SM FEW250
     FM251500 18006KT P6SM FEW030 FEW250
     FM260100 17005KT P6SM SKC=



000
FTUS44 KSHV 251100 RRA
TAFELD
TAF
KELD 251143Z 2512/2612 00000KT P6SM FEW035 SCT250
     FM251400 VRB04KT P6SM SCT045 SCT250
     FM260100 VRB03KT P6SM SKC=



000
FTUS44 KSHV 251100 RRA
TAFSHV
TAF
KSHV 251143Z 2512/2612 VRB03KT P6SM FEW020 SCT250
      TEMPO 2512/2513 5SM BR
     FM251500 15005KT P6SM SCT030 SCT250
     FM260100 16004KT P6SM SKC=



000
FTUS44 KSHV 251100 RRA
TAFGGG
TAF
KGGG 251143Z 2512/2612 00000KT 3SM BR FEW003
     FM251400 18005KT P6SM FEW030 SCT250
     FM260100 17005KT P6SM SKC=



000
FTUS44 KSHV 251100 RRA
TAFTXK
TAF
KTXK 251143Z 2512/2612 00000KT 5SM BR SCT030 SCT250
      TEMPO 2512/2513 2SM BR
     FM251400 16005KT P6SM SCT035 SCT250
     FM260100 17004KT P6SM SKC=



000
FTUS44 KSHV 250900 AAA
TAFELD
TAF AMD
KELD 250919Z 2509/2606 00000KT P6SM BKN035
      TEMPO 2510/2512 4SM BR
     FM251200 05003KT 6SM BR SCT015
     FM251500 10004KT P6SM SCT025 SCT250=



000
FTUS44 KSHV 250900 AAA
TAFLFK
TAF AMD
KLFK 250917Z 2509/2606 00000KT P6SM SKC
      TEMPO 2510/2512 4SM BR FEW015
     FM251200 VRB03KT 6SM BR SCT015
     FM251500 19004KT P6SM SCT030 SCT250=



000
FTUS44 KSHV 250900 AAA
TAFTXK
TAF AMD
KTXK 250915Z 2509/2606 00000KT 3SM BR FEW025 BKN035
      TEMPO 2510/2513 2SM BR BKN025
     FM251400 VRB04KT P6SM SCT025 SCT250=



000
FTUS44 KSHV 250500 RRA
TAFLFK
TAF
KLFK 250541Z 2506/2606 00000KT P6SM SKC
      TEMPO 2507/2511 2SM BR FEW005
     FM251100 00000KT 4SM BR BKN010
     FM251300 19004KT P6SM FEW250=



000
FTUS44 KSHV 250500 RRA
TAFGGG
TAF
KGGG 250541Z 2506/2606 15003KT P6SM SKC
     FM251100 13003KT 5SM BR SKC
     FM251300 18005KT P6SM FEW035=



000
FTUS44 KSHV 250500 RRA
TAFELD
TAF
KELD 250541Z 2506/2606 04003KT P6SM SKC
      TEMPO 2507/2511 2SM BR FEW005
     FM251100 05003KT 3SM BR BKN005
     FM251400 10004KT P6SM SCT020 SCT250=



000
FTUS44 KSHV 250500 RRA
TAFTXK
TAF
KTXK 250541Z 2506/2606 00000KT 6SM BR SKC
      TEMPO 2507/2509 3SM BR SCT025
     FM250900 11003KT 2SM BR SCT030 BKN250
      TEMPO 2510/2513 2SM BR BKN025
     FM251400 VRB04KT P6SM SCT025 SCT250=



000
FTUS44 KSHV 250500 RRA
TAFTYR
TAF
KTYR 250541Z 2506/2606 11003KT P6SM SKC
     FM251300 18005KT P6SM SKC=



000
FTUS44 KSHV 250500 RRA
TAFMLU
TAF
KMLU 250541Z 2506/2606 08005KT P6SM SCT030
      TEMPO 2506/2509 BKN025
     FM250900 05002KT 3SM BR SCT015
      TEMPO 2510/2513 2SM BR BKN015
     FM251400 VRB03KT P6SM FEW020 SCT250=



000
FTUS44 KSHV 250500 RRA
TAFSHV
TAF
KSHV 250541Z 2506/2606 00000KT P6SM SCT025
      TEMPO 2506/2509 BKN025
     FM250900 00000KT 5SM BR SCT015
      TEMPO 2510/2513 2SM BR BKN015
     FM251400 VRB05KT P6SM FEW030 SCT250=



    US Dept of Commerce
    National Oceanic and Atmospheric Administration
    National Weather Service
    1325 East West Highway
    Silver Spring, MD 20910
    Page Author: NWS Internet Services Team
Disclaimer
Information Quality
Credits
Glossary
Privacy Policy
Freedom of Information Act (FOIA)
About Us
Career Opportunities